sensor_id;sensor_type;location;lat;lon;timestamp;temperature;humidity
7212;DHT22;3647;48.792;9.802;2023-04-15T04:53:19;2.90;99.90
7212;DHT22;3647;48.792;9.802;2023-04-15T05:03:07;2.90;99.90
7212;DHT22;3647;48.792;9.802;2023-04-15T05:08:04;3.20;99.90
7212;DHT22;3647;48.792;9.802;2023-04-15T05:10:32;3.20;99.90
7212;DHT22;3647;48.792;9.802;2023-04-15T05:15:26;3.80;99.90
7212;DHT22;3647;48.792;9.802;2023-04-15T05:17:53;4.30;99.90
7212;DHT22;3647;48.792;9.802;2023-04-15T05:20:20;5.10;99.90
7212;DHT22;3647;48.792;9.802;2023-04-15T05:22:47;5.80;99.90
7212;DHT22;3647;48.792;9.802;2023-04-15T05:25:13;6.00;99.90
7212;DHT22;3647;48.792;9.802;2023-04-15T05:27:42;6.50;99.90
7212;DHT22;3647;48.792;9.802;2023-04-15T05:30:09;6.70;99.90
7212;DHT22;3647;48.792;9.802;2023-04-15T05:32:36;6.50;99.90
7212;DHT22;3647;48.792;9.802;2023-04-15T05:35:03;6.10;99.90
7212;DHT22;3647;48.792;9.802;2023-04-15T05:37:31;5.40;99.90
7212;DHT22;3647;48.792;9.802;2023-04-15T05:39:57;5.10;99.90
7212;DHT22;3647;48.792;9.802;2023-04-15T05:42:24;5.10;99.90
7212;DHT22;3647;48.792;9.802;2023-04-15T05:44:52;5.00;99.90
7212;DHT22;3647;48.792;9.802;2023-04-15T05:47:19;5.10;99.90
7212;DHT22;3647;48.792;9.802;2023-04-15T05:49:46;5.10;99.90
7212;DHT22;3647;48.792;9.802;2023-04-15T05:52:12;5.20;99.90
7212;DHT22;3647;48.792;9.802;2023-04-15T05:54:39;5.20;99.90
7212;DHT22;3647;48.792;9.802;2023-04-15T05:57:06;5.30;99.90
7212;DHT22;3647;48.792;9.802;2023-04-15T05:59:33;5.10;99.90
7212;DHT22;3647;48.792;9.802;2023-04-15T06:02:01;5.20;99.90
7212;DHT22;3647;48.792;9.802;2023-04-15T06:04:28;5.40;99.90
7212;DHT22;3647;48.792;9.802;2023-04-15T06:09:22;5.50;99.90
7212;DHT22;3647;48.792;9.802;2023-04-15T06:11:49;5.60;99.90
7212;DHT22;3647;48.792;9.802;2023-04-15T06:14:17;5.70;99.90
7212;DHT22;3647;48.792;9.802;2023-04-15T06:16:43;5.80;99.90
7212;DHT22;3647;48.792;9.802;2023-04-15T06:19:12;5.90;99.90
7212;DHT22;3647;48.792;9.802;2023-04-15T06:21:38;5.80;99.90
7212;DHT22;3647;48.792;9.802;2023-04-15T06:24:06;6.00;99.90
7212;DHT22;3647;48.792;9.802;2023-04-15T06:26:33;6.00;99.90
7212;DHT22;3647;48.792;9.802;2023-04-15T06:28:59;6.10;99.90
7212;DHT22;3647;48.792;9.802;2023-04-15T06:31:26;6.90;99.90
7212;DHT22;3647;48.792;9.802;2023-04-15T06:33:53;7.00;99.90
7212;DHT22;3647;48.792;9.802;2023-04-15T06:36:22;7.40;99.90
7212;DHT22;3647;48.792;9.802;2023-04-15T06:38:48;6.70;99.90
7212;DHT22;3647;48.792;9.802;2023-04-15T06:41:15;6.80;99.90
7212;DHT22;3647;48.792;9.802;2023-04-15T06:43:42;7.00;99.90
7212;DHT22;3647;48.792;9.802;2023-04-15T06:46:09;7.10;99.90
7212;DHT22;3647;48.792;9.802;2023-04-15T06:48:35;7.30;99.90
7212;DHT22;3647;48.792;9.802;2023-04-15T06:51:02;7.50;99.90
7212;DHT22;3647;48.792;9.802;2023-04-15T06:53:31;7.80;99.90
7212;DHT22;3647;48.792;9.802;2023-04-15T06:55:58;7.70;99.90
7212;DHT22;3647;48.792;9.802;2023-04-15T06:58:25;7.80;99.90
7212;DHT22;3647;48.792;9.802;2023-04-15T07:00:52;7.70;99.90
7212;DHT22;3647;48.792;9.802;2023-04-15T07:03:18;7.70;99.90
7212;DHT22;3647;48.792;9.802;2023-04-15T07:05:45;9.00;99.90
7212;DHT22;3647;48.792;9.802;2023-04-15T07:08:12;7.90;99.90
7212;DHT22;3647;48.792;9.802;2023-04-15T07:10:40;8.00;99.90
7212;DHT22;3647;48.792;9.802;2023-04-15T07:13:07;8.30;99.90
7212;DHT22;3647;48.792;9.802;2023-04-15T07:15:34;8.30;99.90
7212;DHT22;3647;48.792;9.802;2023-04-15T07:18:01;8.40;99.90
7212;DHT22;3647;48.792;9.802;2023-04-15T07:20:27;8.50;99.90
7212;DHT22;3647;48.792;9.802;2023-04-15T07:22:54;8.70;99.90
7212;DHT22;3647;48.792;9.802;2023-04-15T07:25:21;8.80;99.90
7212;DHT22;3647;48.792;9.802;2023-04-15T07:27:49;9.00;99.90
7212;DHT22;3647;48.792;9.802;2023-04-15T07:30:17;9.80;99.90
7212;DHT22;3647;48.792;9.802;2023-04-15T07:32:43;9.50;99.90
7212;DHT22;3647;48.792;9.802;2023-04-15T07:35:11;9.70;99.90
7212;DHT22;3647;48.792;9.802;2023-04-15T07:37:37;9.70;99.90
7212;DHT22;3647;48.792;9.802;2023-04-15T07:40:05;9.90;99.90
7212;DHT22;3647;48.792;9.802;2023-04-15T07:42:33;9.90;99.90
7212;DHT22;3647;48.792;9.802;2023-04-15T07:45:02;9.90;99.90
7212;DHT22;3647;48.792;9.802;2023-04-15T07:47:29;10.00;99.90
7212;DHT22;3647;48.792;9.802;2023-04-15T07:49:56;9.80;99.90
7212;DHT22;3647;48.792;9.802;2023-04-15T07:52:23;9.90;99.90
7212;DHT22;3647;48.792;9.802;2023-04-15T07:54:50;9.80;99.90
7212;DHT22;3647;48.792;9.802;2023-04-15T07:57:17;9.80;99.90
7212;DHT22;3647;48.792;9.802;2023-04-15T07:59:44;10.00;99.90
7212;DHT22;3647;48.792;9.802;2023-04-15T08:02:12;10.20;99.90
7212;DHT22;3647;48.792;9.802;2023-04-15T08:04:39;10.30;99.90
7212;DHT22;3647;48.792;9.802;2023-04-15T08:07:06;10.40;99.90
7212;DHT22;3647;48.792;9.802;2023-04-15T08:09:33;10.60;99.90
7212;DHT22;3647;48.792;9.802;2023-04-15T08:12:00;10.40;99.90
7212;DHT22;3647;48.792;9.802;2023-04-15T08:14:28;10.70;99.90
7212;DHT22;3647;48.792;9.802;2023-04-15T08:16:55;10.70;99.90
7212;DHT22;3647;48.792;9.802;2023-04-15T08:19:23;10.80;99.90
7212;DHT22;3647;48.792;9.802;2023-04-15T08:21:50;10.90;99.90
7212;DHT22;3647;48.792;9.802;2023-04-15T08:24:17;11.00;99.90
7212;DHT22;3647;48.792;9.802;2023-04-15T08:26:44;12.00;99.90
7212;DHT22;3647;48.792;9.802;2023-04-15T08:29:11;12.00;99.90
7212;DHT22;3647;48.792;9.802;2023-04-15T08:31:38;12.70;99.90
7212;DHT22;3647;48.792;9.802;2023-04-15T08:34:04;13.00;99.90
7212;DHT22;3647;48.792;9.802;2023-04-15T08:36:32;13.30;99.90
7212;DHT22;3647;48.792;9.802;2023-04-15T08:38:59;13.60;99.90
7212;DHT22;3647;48.792;9.802;2023-04-15T08:41:31;13.70;99.90
7212;DHT22;3647;48.792;9.802;2023-04-15T08:44:02;13.80;99.90
7212;DHT22;3647;48.792;9.802;2023-04-15T08:46:30;13.70;99.90
7212;DHT22;3647;48.792;9.802;2023-04-15T08:48:58;13.60;99.90
7212;DHT22;3647;48.792;9.802;2023-04-15T08:51:26;14.00;99.90
7212;DHT22;3647;48.792;9.802;2023-04-15T08:53:54;14.30;99.90
7212;DHT22;3647;48.792;9.802;2023-04-15T08:56:23;14.20;99.90
7212;DHT22;3647;48.792;9.802;2023-04-15T08:58:51;14.00;99.90
7212;DHT22;3647;48.792;9.802;2023-04-15T09:01:18;13.80;99.90
7212;DHT22;3647;48.792;9.802;2023-04-15T09:03:47;13.90;99.90
7212;DHT22;3647;48.792;9.802;2023-04-15T09:06:15;14.10;99.90
7212;DHT22;3647;48.792;9.802;2023-04-15T09:08:42;14.10;99.90
7212;DHT22;3647;48.792;9.802;2023-04-15T09:11:10;14.40;99.90
7212;DHT22;3647;48.792;9.802;2023-04-15T09:13:38;14.60;99.90
7212;DHT22;3647;48.792;9.802;2023-04-15T09:16:05;14.90;99.90
7212;DHT22;3647;48.792;9.802;2023-04-15T09:18:34;15.10;99.90
7212;DHT22;3647;48.792;9.802;2023-04-15T09:21:04;15.20;99.90
7212;DHT22;3647;48.792;9.802;2023-04-15T09:23:33;15.00;99.90
7212;DHT22;3647;48.792;9.802;2023-04-15T09:26:00;15.10;99.90
7212;DHT22;3647;48.792;9.802;2023-04-15T09:28:29;16.60;99.90
7212;DHT22;3647;48.792;9.802;2023-04-15T09:30:56;14.20;99.90
7212;DHT22;3647;48.792;9.802;2023-04-15T09:33:24;14.40;99.90
7212;DHT22;3647;48.792;9.802;2023-04-15T09:35:59;14.70;99.90
7212;DHT22;3647;48.792;9.802;2023-04-15T09:38:26;14.80;99.90
7212;DHT22;3647;48.792;9.802;2023-04-15T09:40:53;14.80;99.90
7212;DHT22;3647;48.792;9.802;2023-04-15T09:43:20;15.00;99.90
7212;DHT22;3647;48.792;9.802;2023-04-15T09:45:50;14.90;99.90
7212;DHT22;3647;48.792;9.802;2023-04-15T09:48:19;14.60;99.90
7212;DHT22;3647;48.792;9.802;2023-04-15T09:50:47;14.40;99.90
7212;DHT22;3647;48.792;9.802;2023-04-15T09:53:16;14.60;99.90
7212;DHT22;3647;48.792;9.802;2023-04-15T09:55:45;13.90;99.90
7212;DHT22;3647;48.792;9.802;2023-04-15T09:58:18;14.00;99.90
7212;DHT22;3647;48.792;9.802;2023-04-15T10:00:49;14.00;99.90
7212;DHT22;3647;48.792;9.802;2023-04-15T10:03:18;13.30;99.90
7212;DHT22;3647;48.792;9.802;2023-04-15T10:05:47;13.20;99.90
7212;DHT22;3647;48.792;9.802;2023-04-15T10:08:16;13.00;99.90
7212;DHT22;3647;48.792;9.802;2023-04-15T10:10:45;13.40;99.90
7212;DHT22;3647;48.792;9.802;2023-04-15T10:13:13;13.00;99.90
7212;DHT22;3647;48.792;9.802;2023-04-15T10:15:42;13.10;99.90
7212;DHT22;3647;48.792;9.802;2023-04-15T10:18:12;13.30;99.90
7212;DHT22;3647;48.792;9.802;2023-04-15T10:20:42;13.10;99.90
7212;DHT22;3647;48.792;9.802;2023-04-15T10:23:10;12.90;99.90
7212;DHT22;3647;48.792;9.802;2023-04-15T10:25:38;13.20;99.90
7212;DHT22;3647;48.792;9.802;2023-04-15T10:28:06;13.30;99.90
7212;DHT22;3647;48.792;9.802;2023-04-15T10:30:33;13.20;99.90
7212;DHT22;3647;48.792;9.802;2023-04-15T10:33:00;13.40;99.90
7212;DHT22;3647;48.792;9.802;2023-04-15T10:35:32;13.10;99.90
7212;DHT22;3647;48.792;9.802;2023-04-15T10:37:59;13.30;99.90
7212;DHT22;3647;48.792;9.802;2023-04-15T10:40:28;13.40;99.90
7212;DHT22;3647;48.792;9.802;2023-04-15T10:42:57;13.30;99.90
7212;DHT22;3647;48.792;9.802;2023-04-15T10:45:30;13.40;99.90
7212;DHT22;3647;48.792;9.802;2023-04-15T10:48:01;13.10;99.90
7212;DHT22;3647;48.792;9.802;2023-04-15T10:50:29;12.90;99.90
7212;DHT22;3647;48.792;9.802;2023-04-15T10:52:58;13.00;99.90
7212;DHT22;3647;48.792;9.802;2023-04-15T10:55:31;13.00;99.90
7212;DHT22;3647;48.792;9.802;2023-04-15T10:57:59;12.80;99.90
7212;DHT22;3647;48.792;9.802;2023-04-15T11:00:28;12.90;99.90
7212;DHT22;3647;48.792;9.802;2023-04-15T11:02:57;12.80;99.90
7212;DHT22;3647;48.792;9.802;2023-04-15T11:05:48;12.80;99.90
7212;DHT22;3647;48.792;9.802;2023-04-15T11:08:17;12.90;99.90
7212;DHT22;3647;48.792;9.802;2023-04-15T11:10:53;13.10;99.90
7212;DHT22;3647;48.792;9.802;2023-04-15T11:13:24;13.00;99.90
7212;DHT22;3647;48.792;9.802;2023-04-15T11:15:56;12.90;99.90
7212;DHT22;3647;48.792;9.802;2023-04-15T11:18:25;12.90;99.90
7212;DHT22;3647;48.792;9.802;2023-04-15T11:20:54;12.70;99.90
7212;DHT22;3647;48.792;9.802;2023-04-15T11:23:29;12.70;99.90
7212;DHT22;3647;48.792;9.802;2023-04-15T11:25:56;12.90;99.90
7212;DHT22;3647;48.792;9.802;2023-04-15T11:28:25;12.60;99.90
7212;DHT22;3647;48.792;9.802;2023-04-15T11:30:53;12.50;99.90
7212;DHT22;3647;48.792;9.802;2023-04-15T11:33:21;12.50;99.90
7212;DHT22;3647;48.792;9.802;2023-04-15T11:35:48;12.50;99.90
7212;DHT22;3647;48.792;9.802;2023-04-15T11:38:15;12.40;99.90
7212;DHT22;3647;48.792;9.802;2023-04-15T11:40:44;12.70;99.90
7212;DHT22;3647;48.792;9.802;2023-04-15T11:43:11;12.40;99.90
7212;DHT22;3647;48.792;9.802;2023-04-15T11:45:48;12.30;99.90
7212;DHT22;3647;48.792;9.802;2023-04-15T11:48:16;12.30;99.90
7212;DHT22;3647;48.792;9.802;2023-04-15T11:50:43;12.40;99.90
7212;DHT22;3647;48.792;9.802;2023-04-15T11:53:11;12.30;99.90
7212;DHT22;3647;48.792;9.802;2023-04-15T11:55:42;12.20;99.90
7212;DHT22;3647;48.792;9.802;2023-04-15T11:58:12;12.20;99.90
7212;DHT22;3647;48.792;9.802;2023-04-15T12:00:41;12.40;99.90
7212;DHT22;3647;48.792;9.802;2023-04-15T12:03:16;15.10;99.90
7212;DHT22;3647;48.792;9.802;2023-04-15T12:06:09;12.60;99.90
7212;DHT22;3647;48.792;9.802;2023-04-15T12:08:57;12.90;99.90
7212;DHT22;3647;48.792;9.802;2023-04-15T12:11:33;12.90;99.90
7212;DHT22;3647;48.792;9.802;2023-04-15T12:14:05;13.00;99.90
7212;DHT22;3647;48.792;9.802;2023-04-15T12:16:33;12.90;99.90
7212;DHT22;3647;48.792;9.802;2023-04-15T12:19:04;12.50;99.90
7212;DHT22;3647;48.792;9.802;2023-04-15T12:21:36;12.50;99.90
7212;DHT22;3647;48.792;9.802;2023-04-15T12:24:05;12.70;99.90
7212;DHT22;3647;48.792;9.802;2023-04-15T12:26:35;13.10;99.90
7212;DHT22;3647;48.792;9.802;2023-04-15T12:29:06;13.40;99.90
7212;DHT22;3647;48.792;9.802;2023-04-15T12:31:34;13.40;99.90
7212;DHT22;3647;48.792;9.802;2023-04-15T12:34:02;13.30;99.90
7212;DHT22;3647;48.792;9.802;2023-04-15T12:36:34;13.20;99.90
7212;DHT22;3647;48.792;9.802;2023-04-15T12:39:03;13.10;99.90
7212;DHT22;3647;48.792;9.802;2023-04-15T12:41:30;13.00;99.90
7212;DHT22;3647;48.792;9.802;2023-04-15T12:43:58;13.10;99.90
7212;DHT22;3647;48.792;9.802;2023-04-15T12:46:26;13.90;99.90
7212;DHT22;3647;48.792;9.802;2023-04-15T12:48:53;13.30;99.90
7212;DHT22;3647;48.792;9.802;2023-04-15T12:51:20;13.20;99.90
7212;DHT22;3647;48.792;9.802;2023-04-15T12:53:47;13.00;99.90
7212;DHT22;3647;48.792;9.802;2023-04-15T12:56:14;12.60;99.90
7212;DHT22;3647;48.792;9.802;2023-04-15T12:58:41;12.60;99.90
7212;DHT22;3647;48.792;9.802;2023-04-15T13:01:08;12.50;99.90
7212;DHT22;3647;48.792;9.802;2023-04-15T13:03:37;12.30;99.90
7212;DHT22;3647;48.792;9.802;2023-04-15T13:06:04;12.30;99.90
7212;DHT22;3647;48.792;9.802;2023-04-15T13:08:31;12.40;99.90
7212;DHT22;3647;48.792;9.802;2023-04-15T13:10:58;12.50;99.90
7212;DHT22;3647;48.792;9.802;2023-04-15T13:13:25;12.50;99.90
7212;DHT22;3647;48.792;9.802;2023-04-15T13:15:52;13.40;99.90
7212;DHT22;3647;48.792;9.802;2023-04-15T13:18:19;12.70;99.90
7212;DHT22;3647;48.792;9.802;2023-04-15T13:20:49;12.50;99.90
7212;DHT22;3647;48.792;9.802;2023-04-15T13:23:16;12.20;99.90
7212;DHT22;3647;48.792;9.802;2023-04-15T13:25:43;12.20;99.90
7212;DHT22;3647;48.792;9.802;2023-04-15T13:28:10;12.30;99.90
7212;DHT22;3647;48.792;9.802;2023-04-15T13:30:37;12.10;99.90
7212;DHT22;3647;48.792;9.802;2023-04-15T13:33:05;12.00;99.90
7212;DHT22;3647;48.792;9.802;2023-04-15T13:35:33;11.90;99.90
7212;DHT22;3647;48.792;9.802;2023-04-15T13:38:01;11.80;99.90
7212;DHT22;3647;48.792;9.802;2023-04-15T13:40:28;11.90;99.90
7212;DHT22;3647;48.792;9.802;2023-04-15T13:42:55;11.80;99.90
7212;DHT22;3647;48.792;9.802;2023-04-15T13:45:23;11.70;99.90
7212;DHT22;3647;48.792;9.802;2023-04-15T13:47:50;11.60;99.90
7212;DHT22;3647;48.792;9.802;2023-04-15T13:50:17;10.90;99.90
7212;DHT22;3647;48.792;9.802;2023-04-15T13:52:45;11.40;99.90
7212;DHT22;3647;48.792;9.802;2023-04-15T13:55:13;11.40;99.90
7212;DHT22;3647;48.792;9.802;2023-04-15T13:57:40;11.50;99.90
7212;DHT22;3647;48.792;9.802;2023-04-15T14:00:09;11.60;99.90
7212;DHT22;3647;48.792;9.802;2023-04-15T14:02:36;11.70;99.90
7212;DHT22;3647;48.792;9.802;2023-04-15T14:05:03;11.80;99.90
7212;DHT22;3647;48.792;9.802;2023-04-15T14:07:31;12.00;99.90
7212;DHT22;3647;48.792;9.802;2023-04-15T14:10:00;11.90;99.90
7212;DHT22;3647;48.792;9.802;2023-04-15T14:12:29;11.80;99.90
7212;DHT22;3647;48.792;9.802;2023-04-15T14:14:56;11.70;99.90
7212;DHT22;3647;48.792;9.802;2023-04-15T14:17:27;11.80;99.90
7212;DHT22;3647;48.792;9.802;2023-04-15T14:19:54;11.50;99.90
7212;DHT22;3647;48.792;9.802;2023-04-15T14:22:23;11.60;99.90
7212;DHT22;3647;48.792;9.802;2023-04-15T14:24:54;11.60;99.90
7212;DHT22;3647;48.792;9.802;2023-04-15T14:27:21;11.80;99.90
7212;DHT22;3647;48.792;9.802;2023-04-15T14:29:56;13.40;99.90
7212;DHT22;3647;48.792;9.802;2023-04-15T14:32:24;11.50;99.90
7212;DHT22;3647;48.792;9.802;2023-04-15T14:34:51;11.30;99.90
7212;DHT22;3647;48.792;9.802;2023-04-15T14:37:20;11.40;99.90
7212;DHT22;3647;48.792;9.802;2023-04-15T14:39:50;11.50;99.90
7212;DHT22;3647;48.792;9.802;2023-04-15T14:42:26;11.40;99.90
7212;DHT22;3647;48.792;9.802;2023-04-15T14:45:04;11.30;99.90
7212;DHT22;3647;48.792;9.802;2023-04-15T14:50:13;11.40;99.90
7212;DHT22;3647;48.792;9.802;2023-04-15T14:52:41;11.20;99.90
7212;DHT22;3647;48.792;9.802;2023-04-15T14:55:09;10.90;99.90
7212;DHT22;3647;48.792;9.802;2023-04-15T14:57:41;10.80;99.90
7212;DHT22;3647;48.792;9.802;2023-04-15T15:00:11;9.70;99.90
7212;DHT22;3647;48.792;9.802;2023-04-15T15:02:38;9.20;99.90
7212;DHT22;3647;48.792;9.802;2023-04-15T15:05:08;10.90;99.90
7212;DHT22;3647;48.792;9.802;2023-04-15T15:07:35;10.90;99.90
7212;DHT22;3647;48.792;9.802;2023-04-15T15:10:02;10.60;99.90
7212;DHT22;3647;48.792;9.802;2023-04-15T15:12:29;10.50;99.90
7212;DHT22;3647;48.792;9.802;2023-04-15T15:14:56;10.50;99.90
7212;DHT22;3647;48.792;9.802;2023-04-15T15:17:24;10.40;99.90
7212;DHT22;3647;48.792;9.802;2023-04-15T15:19:53;10.50;99.90
7212;DHT22;3647;48.792;9.802;2023-04-15T15:22:20;12.20;99.90
7212;DHT22;3647;48.792;9.802;2023-04-15T15:24:57;10.10;99.90
7212;DHT22;3647;48.792;9.802;2023-04-15T15:27:26;10.10;99.90
7212;DHT22;3647;48.792;9.802;2023-04-15T15:29:53;12.60;99.90
7212;DHT22;3647;48.792;9.802;2023-04-15T15:32:21;10.10;99.90
7212;DHT22;3647;48.792;9.802;2023-04-15T15:34:49;9.80;99.90
7212;DHT22;3647;48.792;9.802;2023-04-15T15:37:17;9.70;99.90
7212;DHT22;3647;48.792;9.802;2023-04-15T15:39:44;9.70;99.90
7212;DHT22;3647;48.792;9.802;2023-04-15T15:42:10;9.70;99.90
7212;DHT22;3647;48.792;9.802;2023-04-15T15:44:37;9.70;99.90
7212;DHT22;3647;48.792;9.802;2023-04-15T15:47:04;9.70;99.90
7212;DHT22;3647;48.792;9.802;2023-04-15T15:49:31;9.40;99.90
7212;DHT22;3647;48.792;9.802;2023-04-15T15:51:59;9.40;99.90
7212;DHT22;3647;48.792;9.802;2023-04-15T15:54:26;9.60;99.90
7212;DHT22;3647;48.792;9.802;2023-04-15T15:56:54;9.30;99.90
7212;DHT22;3647;48.792;9.802;2023-04-15T15:59:28;9.20;99.90
7212;DHT22;3647;48.792;9.802;2023-04-15T16:01:55;9.20;99.90
7212;DHT22;3647;48.792;9.802;2023-04-15T16:04:22;9.20;99.90
7212;DHT22;3647;48.792;9.802;2023-04-15T16:06:48;9.20;99.90
7212;DHT22;3647;48.792;9.802;2023-04-15T16:09:20;9.30;99.90
7212;DHT22;3647;48.792;9.802;2023-04-15T16:11:52;9.30;99.90
7212;DHT22;3647;48.792;9.802;2023-04-15T16:14:20;9.20;99.90
7212;DHT22;3647;48.792;9.802;2023-04-15T16:16:47;10.80;99.90
7212;DHT22;3647;48.792;9.802;2023-04-15T16:19:14;9.20;99.90
7212;DHT22;3647;48.792;9.802;2023-04-15T16:21:41;9.10;99.90
7212;DHT22;3647;48.792;9.802;2023-04-15T16:24:09;9.10;99.90
7212;DHT22;3647;48.792;9.802;2023-04-15T16:26:38;9.10;99.90
7212;DHT22;3647;48.792;9.802;2023-04-15T16:29:05;9.20;99.90
7212;DHT22;3647;48.792;9.802;2023-04-15T16:31:32;9.40;99.90
7212;DHT22;3647;48.792;9.802;2023-04-15T16:34:01;9.30;99.90
7212;DHT22;3647;48.792;9.802;2023-04-15T16:36:28;9.40;99.90
7212;DHT22;3647;48.792;9.802;2023-04-15T16:38:56;9.30;99.90
7212;DHT22;3647;48.792;9.802;2023-04-15T16:41:23;9.30;99.90
7212;DHT22;3647;48.792;9.802;2023-04-15T16:43:51;9.30;99.90
7212;DHT22;3647;48.792;9.802;2023-04-15T16:46:18;9.30;99.90
7212;DHT22;3647;48.792;9.802;2023-04-15T16:48:45;9.20;99.90
7212;DHT22;3647;48.792;9.802;2023-04-15T16:51:12;9.30;99.90
7212;DHT22;3647;48.792;9.802;2023-04-15T16:53:39;9.40;99.90
7212;DHT22;3647;48.792;9.802;2023-04-15T16:56:06;9.50;99.90
7212;DHT22;3647;48.792;9.802;2023-04-15T16:58:33;9.50;99.90
7212;DHT22;3647;48.792;9.802;2023-04-15T17:01:01;10.00;99.90
7212;DHT22;3647;48.792;9.802;2023-04-15T17:03:28;11.10;99.90
7212;DHT22;3647;48.792;9.802;2023-04-15T17:08:23;9.40;99.90
7212;DHT22;3647;48.792;9.802;2023-04-15T17:10:50;9.40;99.90
7212;DHT22;3647;48.792;9.802;2023-04-15T17:13:17;9.40;99.90
7212;DHT22;3647;48.792;9.802;2023-04-15T17:15:44;9.30;99.90
7212;DHT22;3647;48.792;9.802;2023-04-15T17:18:12;9.40;99.90
7212;DHT22;3647;48.792;9.802;2023-04-15T17:20:39;9.40;99.90
7212;DHT22;3647;48.792;9.802;2023-04-15T17:25:33;9.50;99.90
7212;DHT22;3647;48.792;9.802;2023-04-15T17:30:27;9.50;99.90
7212;DHT22;3647;48.792;9.802;2023-04-15T17:32:53;9.40;99.90
7212;DHT22;3647;48.792;9.802;2023-04-15T17:35:22;9.50;99.90
7212;DHT22;3647;48.792;9.802;2023-04-15T17:40:17;9.50;99.90
7212;DHT22;3647;48.792;9.802;2023-04-15T17:42:44;9.50;99.90
7212;DHT22;3647;48.792;9.802;2023-04-15T17:47:38;9.40;99.90
7212;DHT22;3647;48.792;9.802;2023-04-15T17:50:06;9.20;99.90
7212;DHT22;3647;48.792;9.802;2023-04-15T17:52:34;9.20;99.90
7212;DHT22;3647;48.792;9.802;2023-04-15T17:55:01;9.30;99.90
7212;DHT22;3647;48.792;9.802;2023-04-15T18:09:45;9.30;99.90
7212;DHT22;3647;48.792;9.802;2023-04-15T18:12:11;9.20;99.90
7212;DHT22;3647;48.792;9.802;2023-04-15T18:14:38;9.20;99.90
7212;DHT22;3647;48.792;9.802;2023-04-15T18:17:06;9.10;99.90
7212;DHT22;3647;48.792;9.802;2023-04-15T18:19:33;9.00;99.90
7212;DHT22;3647;48.792;9.802;2023-04-15T18:21:59;9.00;99.90
7212;DHT22;3647;48.792;9.802;2023-04-15T18:24:27;9.10;99.90
7212;DHT22;3647;48.792;9.802;2023-04-15T18:26:56;9.00;99.90
7212;DHT22;3647;48.792;9.802;2023-04-15T18:29:23;9.10;99.90
7212;DHT22;3647;48.792;9.802;2023-04-15T18:36:45;9.00;99.90
7212;DHT22;3647;48.792;9.802;2023-04-15T18:39:11;9.00;99.90
7212;DHT22;3647;48.792;9.802;2023-04-15T18:44:07;8.90;99.90
7212;DHT22;3647;48.792;9.802;2023-04-15T18:46:33;8.80;99.90
7212;DHT22;3647;48.792;9.802;2023-04-15T18:49:00;8.90;99.90
7212;DHT22;3647;48.792;9.802;2023-04-15T18:51:27;8.70;99.90
7212;DHT22;3647;48.792;9.802;2023-04-15T18:53:54;8.70;99.90
7212;DHT22;3647;48.792;9.802;2023-04-15T18:56:20;8.70;99.90
7212;DHT22;3647;48.792;9.802;2023-04-15T19:01:16;8.60;99.90
7212;DHT22;3647;48.792;9.802;2023-04-15T19:03:43;8.50;99.90
7212;DHT22;3647;48.792;9.802;2023-04-15T19:06:10;8.60;99.90
7212;DHT22;3647;48.792;9.802;2023-04-15T19:11:04;8.50;99.90
7212;DHT22;3647;48.792;9.802;2023-04-15T19:15:57;8.60;99.90
7212;DHT22;3647;48.792;9.802;2023-04-15T19:18:26;8.50;99.90
7212;DHT22;3647;48.792;9.802;2023-04-15T19:25:47;8.50;99.90
7212;DHT22;3647;48.792;9.802;2023-04-15T19:28:14;8.40;99.90
7212;DHT22;3647;48.792;9.802;2023-04-15T19:30:41;8.40;99.90
7212;DHT22;3647;48.792;9.802;2023-04-15T19:33:08;8.40;99.90
7212;DHT22;3647;48.792;9.802;2023-04-15T19:35:36;8.30;99.90
7212;DHT22;3647;48.792;9.802;2023-04-15T19:38:03;8.40;99.90
7212;DHT22;3647;48.792;9.802;2023-04-15T19:40:30;8.40;99.90
7212;DHT22;3647;48.792;9.802;2023-04-15T19:42:57;8.40;99.90
7212;DHT22;3647;48.792;9.802;2023-04-15T19:45:24;8.40;99.90
7212;DHT22;3647;48.792;9.802;2023-04-15T19:47:51;9.20;99.90
7212;DHT22;3647;48.792;9.802;2023-04-15T19:50:18;9.30;99.90
7212;DHT22;3647;48.792;9.802;2023-04-15T19:52:50;8.50;99.90
7212;DHT22;3647;48.792;9.802;2023-04-15T19:55:17;10.00;99.90
7212;DHT22;3647;48.792;9.802;2023-04-15T19:57:44;8.50;99.90
7212;DHT22;3647;48.792;9.802;2023-04-15T20:00:12;8.50;99.90
7212;DHT22;3647;48.792;9.802;2023-04-15T20:02:39;8.50;99.90
7212;DHT22;3647;48.792;9.802;2023-04-15T20:05:06;8.50;99.90
7212;DHT22;3647;48.792;9.802;2023-04-15T20:07:34;8.50;99.90
7212;DHT22;3647;48.792;9.802;2023-04-15T20:10:02;9.40;99.90
7212;DHT22;3647;48.792;9.802;2023-04-15T20:12:29;8.50;99.90
7212;DHT22;3647;48.792;9.802;2023-04-15T20:14:56;8.50;99.90
7212;DHT22;3647;48.792;9.802;2023-04-15T20:17:23;8.70;99.90
7212;DHT22;3647;48.792;9.802;2023-04-15T20:19:49;8.40;99.90
7212;DHT22;3647;48.792;9.802;2023-04-15T20:22:16;8.40;99.90
7212;DHT22;3647;48.792;9.802;2023-04-15T20:24:43;8.40;99.90
7212;DHT22;3647;48.792;9.802;2023-04-15T20:27:11;8.40;99.90
7212;DHT22;3647;48.792;9.802;2023-04-15T20:29:38;9.00;99.90
7212;DHT22;3647;48.792;9.802;2023-04-15T20:32:05;8.40;99.90
7212;DHT22;3647;48.792;9.802;2023-04-15T20:34:35;8.40;99.90
7212;DHT22;3647;48.792;9.802;2023-04-15T20:37:04;8.50;99.90
7212;DHT22;3647;48.792;9.802;2023-04-15T20:39:32;8.40;99.90
7212;DHT22;3647;48.792;9.802;2023-04-15T20:41:59;8.30;99.90
7212;DHT22;3647;48.792;9.802;2023-04-15T20:44:28;8.30;99.90
7212;DHT22;3647;48.792;9.802;2023-04-15T20:46:55;8.30;99.90
7212;DHT22;3647;48.792;9.802;2023-04-15T20:49:21;8.30;99.90
7212;DHT22;3647;48.792;9.802;2023-04-15T20:51:48;8.40;99.90
7212;DHT22;3647;48.792;9.802;2023-04-15T20:54:15;8.70;99.90
7212;DHT22;3647;48.792;9.802;2023-04-15T20:56:43;8.40;99.90
7212;DHT22;3647;48.792;9.802;2023-04-15T20:59:10;8.40;99.90
7212;DHT22;3647;48.792;9.802;2023-04-15T21:01:38;8.40;99.90
7212;DHT22;3647;48.792;9.802;2023-04-15T21:04:05;8.40;99.90
7212;DHT22;3647;48.792;9.802;2023-04-15T21:06:33;8.40;99.90
7212;DHT22;3647;48.792;9.802;2023-04-15T21:09:00;8.40;99.90
7212;DHT22;3647;48.792;9.802;2023-04-15T21:11:26;9.00;99.90
7212;DHT22;3647;48.792;9.802;2023-04-15T21:13:53;8.30;99.90
7212;DHT22;3647;48.792;9.802;2023-04-15T21:16:20;8.40;99.90
7212;DHT22;3647;48.792;9.802;2023-04-15T21:18:48;8.30;99.90
7212;DHT22;3647;48.792;9.802;2023-04-15T21:21:15;9.60;99.90
7212;DHT22;3647;48.792;9.802;2023-04-15T21:23:42;8.30;99.90
7212;DHT22;3647;48.792;9.802;2023-04-15T21:26:08;8.30;99.90
7212;DHT22;3647;48.792;9.802;2023-04-15T21:28:35;8.40;99.90
7212;DHT22;3647;48.792;9.802;2023-04-15T21:31:03;8.40;99.90
7212;DHT22;3647;48.792;9.802;2023-04-15T21:33:31;8.40;99.90
7212;DHT22;3647;48.792;9.802;2023-04-15T21:35:59;8.40;99.90
7212;DHT22;3647;48.792;9.802;2023-04-15T21:38:25;8.40;99.90
7212;DHT22;3647;48.792;9.802;2023-04-15T21:40:52;8.40;99.90
7212;DHT22;3647;48.792;9.802;2023-04-15T21:43:19;8.50;99.90
